createdAt,value
2018-11-10T00:00:42.836Z,100232.09
2018-11-10T00:01:48.302Z,100235.06
2018-11-10T00:02:54.235Z,100231.64
2018-11-10T00:03:59.725Z,100228.13
2018-11-10T00:05:06.127Z,100226.89
2018-11-10T00:06:11.605Z,100225.12
2018-11-10T00:07:17.188Z,100222.48
2018-11-10T00:08:22.718Z,100225.45
2018-11-10T00:09:28.091Z,100223.84
2018-11-10T00:10:33.525Z,100222.64
2018-11-10T00:11:38.919Z,100222.27
2018-11-10T00:12:44.388Z,100223.02
2018-11-10T00:13:49.881Z,100221.45
2018-11-10T00:14:55.372Z,100215.42
2018-11-10T00:16:00.757Z,100214.47
2018-11-10T00:17:06.948Z,100211.54
2018-11-10T00:18:12.424Z,100208.45
2018-11-10T00:19:17.895Z,100210.17
2018-11-10T00:20:23.348Z,100209.77
2018-11-10T00:21:28.858Z,100204.65
2018-11-10T00:22:34.277Z,100202.59
2018-11-10T00:23:39.890Z,100202.22
2018-11-10T00:24:45.385Z,100205.52
2018-11-10T00:25:50.818Z,100203.37
2018-11-10T00:26:56.188Z,100199.41
2018-11-10T00:28:01.599Z,100204.95
2018-11-10T00:29:07.486Z,100200.61
2018-11-10T00:30:14.047Z,100202.43
2018-11-10T00:31:19.568Z,100203.86
2018-11-10T00:32:25.084Z,100193.72
2018-11-10T00:33:30.525Z,100198.79
2018-11-10T00:34:36.050Z,100195.36
2018-11-10T00:35:41.465Z,100197.55
2018-11-10T00:36:46.906Z,100198.83
2018-11-10T00:37:52.328Z,100195.36
2018-11-10T00:38:57.825Z,100192.43
2018-11-10T00:40:03.322Z,100192.84
2018-11-10T00:41:08.770Z,100188.60
2018-11-10T00:42:14.240Z,100190.78
2018-11-10T00:43:19.906Z,100193.38
2018-11-10T00:44:25.370Z,100183.98
2018-11-10T00:45:30.824Z,100183.98
2018-11-10T00:46:36.253Z,100183.07
2018-11-10T00:47:41.778Z,100186.98
2018-11-10T00:48:47.172Z,100186.69
2018-11-10T00:49:52.604Z,100187.89
2018-11-10T00:50:58.147Z,100187.97
2018-11-10T00:52:03.714Z,100185.83
2018-11-10T00:53:09.177Z,100184.96
2018-11-10T00:54:14.689Z,100182.06
2018-11-10T00:55:20.154Z,100184.17
2018-11-10T00:56:25.652Z,100182.89
2018-11-10T00:57:31.124Z,100181.17
2018-11-10T00:58:36.580Z,100180.72
2018-11-10T00:59:42.022Z,100181.88
2018-11-10T01:00:47.471Z,100178.37
2018-11-10T01:01:53.006Z,100176.22
2018-11-10T01:02:58.525Z,100178.41
2018-11-10T01:04:04.021Z,100178.53
2018-11-10T01:05:09.585Z,100176.34
2018-11-10T01:06:15.058Z,100175.85
2018-11-10T01:07:20.518Z,100163.43
2018-11-10T01:08:25.960Z,100173.41
2018-11-10T01:09:31.396Z,100174.65
2018-11-10T01:10:36.853Z,100179.35
2018-11-10T01:11:42.244Z,100168.63
2018-11-10T01:12:47.709Z,100162.23
2018-11-10T01:13:53.189Z,100160.45
2018-11-10T01:14:58.644Z,100166.72
2018-11-10T01:16:04.201Z,100166.31
2018-11-10T01:17:09.647Z,100160.21
2018-11-10T01:18:15.128Z,100151.63
2018-11-10T01:19:20.573Z,100154.52
2018-11-10T01:20:26.074Z,100154.47
2018-11-10T01:21:31.461Z,100157.48
2018-11-10T01:22:36.957Z,100153.64
2018-11-10T01:23:42.378Z,100148.52
2018-11-10T01:24:47.821Z,100145.06
2018-11-10T01:25:53.220Z,100144.11
2018-11-10T01:26:58.739Z,100150.59
2018-11-10T01:28:04.299Z,100144.64
2018-11-10T01:29:09.679Z,100141.87
2018-11-10T01:30:16.316Z,100142.33
2018-11-10T01:31:21.956Z,100137.91
2018-11-10T01:32:27.676Z,100142.29
2018-11-10T01:33:33.104Z,100138.78
2018-11-10T01:34:38.542Z,100129.87
2018-11-10T01:35:43.980Z,100135.77
2018-11-10T01:36:49.443Z,100138.78
2018-11-10T01:37:54.897Z,100138.73
2018-11-10T01:39:01.855Z,100128.54
2018-11-10T01:40:09.825Z,100133.99
2018-11-10T01:41:15.245Z,100130.16
2018-11-10T01:42:20.656Z,100130.47
2018-11-10T01:43:26.106Z,100130.02
2018-11-10T01:44:31.861Z,100126.09
2018-11-10T01:45:37.260Z,100131.70
2018-11-10T01:46:42.705Z,100130.35
2018-11-10T01:47:48.365Z,100122.75
2018-11-10T01:48:53.918Z,100117.63
2018-11-10T01:49:59.441Z,100119.38
2018-11-10T01:51:05.442Z,100117.63
2018-11-10T01:52:11.444Z,100118.01
2018-11-10T01:53:16.848Z,100117.67
2018-11-10T01:54:22.430Z,100114.66
2018-11-10T01:55:27.844Z,100120.73
2018-11-10T01:56:33.271Z,100118.55
2018-11-10T01:57:38.952Z,100119.78
2018-11-10T01:58:44.320Z,100122.80
2018-11-10T01:59:49.785Z,100116.34
2018-11-10T02:00:55.224Z,100121.02
2018-11-10T02:02:00.714Z,100106.03
2018-11-10T02:03:06.524Z,100118.29
2018-11-10T02:04:12.008Z,100114.41
2018-11-10T02:05:18.025Z,100109.69
2018-11-10T02:06:23.465Z,100101.73
2018-11-10T02:07:28.904Z,100106.77
2018-11-10T02:08:34.328Z,100099.45
2018-11-10T02:09:39.777Z,100095.20
2018-11-10T02:10:45.189Z,100093.50
2018-11-10T02:11:50.670Z,100092.10
2018-11-10T02:12:56.166Z,100091.77
2018-11-10T02:14:01.676Z,100089.41
2018-11-10T02:15:09.869Z,100088.95
2018-11-10T02:16:15.298Z,100081.31
2018-11-10T02:17:20.729Z,100084.78
2018-11-10T02:18:26.150Z,100085.28
2018-11-10T02:19:31.664Z,100077.59
2018-11-10T02:20:37.234Z,100071.13
2018-11-10T02:21:42.759Z,100073.63
2018-11-10T02:22:48.220Z,100068.64
2018-11-10T02:23:53.737Z,100071.63
2018-11-10T02:24:59.208Z,100063.06
2018-11-10T02:26:04.956Z,100066.86
2018-11-10T02:27:15.546Z,100062.97
2018-11-10T02:28:21.077Z,100058.82
2018-11-10T02:29:26.529Z,100055.44
2018-11-10T02:30:31.984Z,100054.16
2018-11-10T02:31:37.421Z,100051.09
2018-11-10T02:32:43.155Z,100049.67
2018-11-10T02:33:48.760Z,100043.77
2018-11-10T02:34:54.527Z,100045.88
2018-11-10T02:35:59.936Z,100046.70
2018-11-10T02:37:05.789Z,100040.30
2018-11-10T02:38:11.252Z,100042.81
2018-11-10T02:39:16.766Z,100034.41
2018-11-10T02:40:22.261Z,100042.91
2018-11-10T02:41:27.714Z,100041.54
2018-11-10T02:42:33.140Z,100038.97
2018-11-10T02:43:38.616Z,100038.42
2018-11-10T02:44:44.054Z,100035.31
2018-11-10T02:45:49.532Z,100030.52
2018-11-10T02:46:55.108Z,100033.13
2018-11-10T02:48:00.537Z,100031.80
2018-11-10T02:49:06.525Z,100027.53
2018-11-10T02:50:11.992Z,100020.73
2018-11-10T02:51:17.486Z,100020.23
2018-11-10T02:52:22.900Z,100015.52
2018-11-10T02:53:28.445Z,100013.32
2018-11-10T02:54:34.066Z,100011.62
2018-11-10T02:55:39.522Z,100007.70
2018-11-10T02:56:44.956Z,100004.72
2018-11-10T02:57:50.384Z,99999.46
2018-11-10T02:58:55.773Z,100000.37
2018-11-10T03:00:01.199Z,100001.92
2018-11-10T03:01:06.720Z,99998.91
2018-11-10T03:02:12.214Z,99995.92
2018-11-10T03:03:17.682Z,99988.19
2018-11-10T03:04:23.298Z,99993.64
2018-11-10T03:05:28.688Z,99993.69
2018-11-10T03:06:34.142Z,99991.53
2018-11-10T03:07:40.052Z,99992.25
2018-11-10T03:08:45.473Z,99988.23
2018-11-10T03:09:50.912Z,99988.78
2018-11-10T03:10:56.374Z,99983.28
2018-11-10T03:12:01.733Z,99980.77
2018-11-10T03:13:07.512Z,99981.09
2018-11-10T03:14:12.917Z,99977.16
2018-11-10T03:15:18.385Z,99978.75
2018-11-10T03:16:23.832Z,99979.16
2018-11-10T03:17:29.318Z,99978.03
2018-11-10T03:18:34.818Z,99976.33
2018-11-10T03:19:40.373Z,99967.92
2018-11-10T03:20:45.794Z,99965.17
2018-11-10T03:21:51.346Z,99951.43
2018-11-10T03:22:56.925Z,99956.05
2018-11-10T03:24:02.357Z,99959.03
2018-11-10T03:25:07.878Z,99957.28
2018-11-10T03:26:13.343Z,99954.63
2018-11-10T03:27:18.865Z,99949.86
2018-11-10T03:28:24.562Z,99951.14
2018-11-10T03:29:30.003Z,99942.17
2018-11-10T03:30:35.478Z,99940.89
2018-11-10T03:31:41.017Z,99944.17
2018-11-10T03:32:46.429Z,99946.28
2018-11-10T03:33:51.925Z,99949.05
2018-11-10T03:34:57.360Z,99954.44
2018-11-10T03:36:02.789Z,99944.08
2018-11-10T03:37:08.252Z,99940.95
2018-11-10T03:38:13.726Z,99945.10
2018-11-10T03:39:19.343Z,99939.47
2018-11-10T03:40:24.836Z,99933.83
2018-11-10T03:41:30.262Z,99936.50
2018-11-10T03:42:35.723Z,99935.11
2018-11-10T03:43:41.172Z,99930.76
2018-11-10T03:44:46.600Z,99922.56
2018-11-10T03:45:52.012Z,99919.12
2018-11-10T03:46:57.472Z,99922.28
2018-11-10T03:48:02.961Z,99922.39
2018-11-10T03:49:08.409Z,99926.80
2018-11-10T03:50:13.964Z,99928.14
2018-11-10T03:51:19.364Z,99925.47
2018-11-10T03:52:24.816Z,99926.24
2018-11-10T03:53:30.269Z,99926.24
2018-11-10T03:54:35.673Z,99919.33
2018-11-10T03:55:41.105Z,99921.32
2018-11-10T03:56:46.505Z,99914.20
2018-11-10T03:57:51.917Z,99909.33
2018-11-10T03:58:57.387Z,99902.81
2018-11-10T04:00:02.872Z,99903.98
2018-11-10T04:01:08.762Z,99903.27
2018-11-10T04:02:14.253Z,99904.91
2018-11-10T04:03:19.738Z,99906.14
2018-11-10T04:04:25.126Z,99901.07
2018-11-10T04:05:30.605Z,99904.55
2018-11-10T04:06:36.030Z,99909.42
2018-11-10T04:07:42.425Z,99897.57
2018-11-10T04:08:47.913Z,99897.88
2018-11-10T04:09:57.860Z,99895.58
2018-11-10T04:11:04.277Z,99894.06
2018-11-10T04:12:09.736Z,99892.44
2018-11-10T04:13:15.196Z,99893.35
2018-11-10T04:14:20.926Z,99888.80
2018-11-10T04:15:26.404Z,99883.98
2018-11-10T04:16:31.945Z,99884.33
2018-11-10T04:17:37.594Z,99884.12
2018-11-10T04:18:43.056Z,99893.24
2018-11-10T04:19:48.488Z,99888.94
2018-11-10T04:20:53.936Z,99883.18
2018-11-10T04:21:59.413Z,99887.39
2018-11-10T04:23:05.310Z,99882.27
2018-11-10T04:24:10.837Z,99882.66
2018-11-10T04:25:16.240Z,99880.61
2018-11-10T04:26:21.738Z,99875.91
2018-11-10T04:27:27.324Z,99871.58
2018-11-10T04:28:32.716Z,99876.56
2018-11-10T04:29:38.168Z,99868.37
2018-11-10T04:30:43.606Z,99865.23
2018-11-10T04:31:49.149Z,99863.37
2018-11-10T04:32:54.604Z,99866.00
2018-11-10T04:34:00.077Z,99863.48
2018-11-10T04:35:06.399Z,99866.00
2018-11-10T04:36:11.838Z,99859.13
2018-11-10T04:37:17.302Z,99863.31
2018-11-10T04:38:22.721Z,99855.63
2018-11-10T04:39:28.189Z,99860.66
2018-11-10T04:40:33.641Z,99855.34
2018-11-10T04:41:39.069Z,99853.17
2018-11-10T04:42:44.493Z,99856.96
2018-11-10T04:43:49.992Z,99858.88
2018-11-10T04:44:55.459Z,99853.75
2018-11-10T04:46:00.993Z,99850.48
2018-11-10T04:47:06.597Z,99856.83
2018-11-10T04:48:12.001Z,99852.06
2018-11-10T04:49:17.459Z,99857.20
2018-11-10T04:50:22.849Z,99854.00
2018-11-10T04:51:28.350Z,99847.39
2018-11-10T04:52:33.894Z,99845.66
2018-11-10T04:53:39.409Z,99845.08
2018-11-10T04:54:44.838Z,99840.30
2018-11-10T04:55:50.291Z,99832.03
2018-11-10T04:56:55.817Z,99834.05
2018-11-10T04:58:01.205Z,99836.09
2018-11-10T04:59:06.628Z,99831.14
2018-11-10T05:00:15.821Z,99840.52
2018-11-10T05:01:21.343Z,99835.93
2018-11-10T05:02:26.806Z,99834.83
2018-11-10T05:03:32.221Z,99836.88
2018-11-10T05:04:37.669Z,99834.16
2018-11-10T05:05:43.269Z,99828.00
2018-11-10T05:06:48.814Z,99828.34
2018-11-10T05:07:54.283Z,99833.84
2018-11-10T05:08:59.672Z,99834.55
2018-11-10T05:10:05.906Z,99832.03
2018-11-10T05:11:11.346Z,99827.82
2018-11-10T05:12:16.838Z,99830.75
2018-11-10T05:13:22.388Z,99823.70
2018-11-10T05:14:28.323Z,99827.19
2018-11-10T05:15:33.712Z,99828.06
2018-11-10T05:16:39.120Z,99822.48
2018-11-10T05:17:44.592Z,99821.48
2018-11-10T05:18:50.064Z,99827.80
2018-11-10T05:19:55.618Z,99824.16
2018-11-10T05:21:01.021Z,99818.70
2018-11-10T05:22:06.480Z,99816.89
2018-11-10T05:23:11.894Z,99815.83
2018-11-10T05:24:17.557Z,99815.67
2018-11-10T05:25:22.998Z,99811.40
2018-11-10T05:26:28.516Z,99813.91
2018-11-10T05:27:33.908Z,99813.91
2018-11-10T05:28:39.328Z,99811.77
2018-11-10T05:29:44.787Z,99803.64
2018-11-10T05:30:50.219Z,99809.95
2018-11-10T05:31:55.721Z,99808.38
2018-11-10T05:33:01.125Z,99812.16
2018-11-10T05:34:07.227Z,99813.32
2018-11-10T05:35:12.725Z,99809.35
2018-11-10T05:36:18.211Z,99819.52
2018-11-10T05:37:23.726Z,99818.39
2018-11-10T05:38:29.177Z,99814.97
2018-11-10T05:39:34.617Z,99821.72
2018-11-10T05:40:40.045Z,99811.06
2018-11-10T05:41:45.449Z,99808.44
2018-11-10T05:42:50.869Z,99807.48
2018-11-10T05:43:56.298Z,99811.77
2018-11-10T05:45:01.697Z,99807.61
2018-11-10T05:46:07.601Z,99803.77
2018-11-10T05:47:13.119Z,99809.59
2018-11-10T05:48:18.598Z,99805.80
2018-11-10T05:49:23.972Z,99803.18
2018-11-10T05:50:29.403Z,99802.36
2018-11-10T05:51:34.849Z,99800.86
2018-11-10T05:52:40.271Z,99799.11
2018-11-10T05:53:45.908Z,99790.59
2018-11-10T05:54:51.333Z,99799.39
2018-11-10T05:55:56.776Z,99795.60
2018-11-10T05:57:02.290Z,99793.92
2018-11-10T05:58:07.665Z,99793.62
2018-11-10T05:59:13.158Z,99791.42
2018-11-10T06:00:18.730Z,99790.14
2018-11-10T06:01:24.149Z,99791.81
2018-11-10T06:02:29.652Z,99792.34
2018-11-10T06:03:35.084Z,99793.74
2018-11-10T06:04:40.497Z,99791.58
2018-11-10T06:05:46.007Z,99791.64
2018-11-10T06:06:51.502Z,99798.57
2018-11-10T06:07:56.937Z,99800.22
2018-11-10T06:09:02.445Z,99800.16
2018-11-10T06:10:09.561Z,99806.51
2018-11-10T06:11:14.848Z,99802.97
2018-11-10T06:12:20.346Z,99805.34
2018-11-10T06:13:25.865Z,99806.20
2018-11-10T06:14:31.332Z,99804.34
2018-11-10T06:15:36.783Z,99796.19
2018-11-10T06:16:42.245Z,99794.38
2018-11-10T06:17:47.642Z,99795.73
2018-11-10T06:18:53.312Z,99803.82
2018-11-10T06:19:58.744Z,99800.49
2018-11-10T06:21:04.224Z,99807.34
2018-11-10T06:22:09.744Z,99807.80
2018-11-10T06:23:15.197Z,99806.45
2018-11-10T06:24:20.632Z,99806.51
2018-11-10T06:25:26.086Z,99810.64
2018-11-10T06:26:31.551Z,99808.65
2018-11-10T06:27:36.993Z,99798.30
2018-11-10T06:28:42.465Z,99807.73
2018-11-10T06:29:47.884Z,99806.91
2018-11-10T06:30:53.510Z,99815.64
2018-11-10T06:31:58.970Z,99814.27
2018-11-10T06:33:04.506Z,99813.50
2018-11-10T06:34:10.033Z,99817.50
2018-11-10T06:35:15.474Z,99816.34
2018-11-10T06:36:21.028Z,99805.89
2018-11-10T06:37:26.419Z,99808.77
2018-11-10T06:38:31.817Z,99806.02
2018-11-10T06:39:37.292Z,99804.92
2018-11-10T06:40:42.754Z,99805.80
2018-11-10T06:41:48.261Z,99803.52
2018-11-10T06:42:53.705Z,99807.30
2018-11-10T06:43:59.140Z,99808.34
2018-11-10T06:45:05.425Z,99800.77
2018-11-10T06:46:10.876Z,99799.48
2018-11-10T06:47:16.373Z,99798.14
2018-11-10T06:48:21.689Z,99795.06
2018-11-10T06:49:27.121Z,99792.61
2018-11-10T06:50:32.554Z,99791.05
2018-11-10T06:51:37.963Z,99789.44
2018-11-10T06:52:43.457Z,99789.89
2018-11-10T06:53:48.898Z,99791.42
2018-11-10T06:54:54.392Z,99784.46
2018-11-10T06:55:59.792Z,99782.30
2018-11-10T06:57:05.748Z,99780.61
2018-11-10T06:58:11.267Z,99777.56
2018-11-10T06:59:16.731Z,99779.15
2018-11-10T07:00:22.121Z,99784.06
2018-11-10T07:01:27.509Z,99786.27
2018-11-10T07:02:33.021Z,99784.52
2018-11-10T07:03:38.451Z,99785.11
2018-11-10T07:04:43.878Z,99786.33
2018-11-10T07:05:49.330Z,99779.85
2018-11-10T07:06:54.787Z,99775.42
2018-11-10T07:08:00.217Z,99777.34
2018-11-10T07:09:09.713Z,99778.94
2018-11-10T07:10:15.173Z,99773.28
2018-11-10T07:11:20.581Z,99778.41
2018-11-10T07:12:26.021Z,99779.63
2018-11-10T07:13:31.538Z,99777.83
2018-11-10T07:14:36.970Z,99781.16
2018-11-10T07:15:42.413Z,99781.79
2018-11-10T07:16:47.838Z,99786.41
2018-11-10T07:17:53.292Z,99787.50
2018-11-10T07:18:58.716Z,99790.13
2018-11-10T07:20:04.349Z,99791.34
2018-11-10T07:21:09.837Z,99794.03
2018-11-10T07:22:15.240Z,99795.61
2018-11-10T07:23:20.696Z,99796.53
2018-11-10T07:24:26.179Z,99797.05
2018-11-10T07:25:31.665Z,99797.30
2018-11-10T07:26:37.170Z,99802.20
2018-11-10T07:27:42.714Z,99798.09
2018-11-10T07:28:48.168Z,99804.75
2018-11-10T07:29:53.669Z,99804.16
2018-11-10T07:30:59.202Z,99796.34
2018-11-10T07:32:04.758Z,99803.81
2018-11-10T07:33:10.176Z,99805.03
2018-11-10T07:34:15.649Z,99804.45
2018-11-10T07:35:21.255Z,99803.03
2018-11-10T07:36:26.736Z,99809.22
2018-11-10T07:37:32.312Z,99802.73
2018-11-10T07:38:37.691Z,99807.09
2018-11-10T07:39:43.141Z,99803.92
2018-11-10T07:40:48.688Z,99805.44
2018-11-10T07:41:54.276Z,99806.72
2018-11-10T07:42:59.756Z,99824.58
2018-11-10T07:44:05.648Z,99810.83
2018-11-10T07:45:14.581Z,99810.97
2018-11-10T07:46:20.037Z,99807.11
2018-11-10T07:47:25.464Z,99799.34
2018-11-10T07:48:30.945Z,99803.81
2018-11-10T07:49:36.529Z,99805.56
2018-11-10T07:50:42.125Z,99818.64
2018-11-10T07:51:47.598Z,99813.20
2018-11-10T07:52:53.060Z,99818.70
2018-11-10T07:53:58.437Z,99821.27
2018-11-10T07:55:03.995Z,99822.42
2018-11-10T07:56:09.722Z,99824.60
2018-11-10T07:57:15.204Z,99826.91
2018-11-10T07:58:20.672Z,99823.05
2018-11-10T07:59:26.153Z,99820.84
2018-11-10T08:00:31.622Z,99816.09
2018-11-10T08:01:37.113Z,99821.49
2018-11-10T08:02:42.714Z,99826.67
2018-11-10T08:03:48.188Z,99820.24
2018-11-10T08:04:53.611Z,99829.59
2018-11-10T08:05:59.020Z,99828.08
2018-11-10T08:07:04.516Z,99824.09
2018-11-10T08:08:10.038Z,99832.09
2018-11-10T08:09:15.740Z,99822.89
2018-11-10T08:10:21.156Z,99837.58
2018-11-10T08:11:26.617Z,99828.41
2018-11-10T08:12:32.044Z,99827.59
2018-11-10T08:13:37.552Z,99833.02
2018-11-10T08:14:43.056Z,99833.64
2018-11-10T08:15:48.595Z,99828.81
2018-11-10T08:16:54.210Z,99837.58
2018-11-10T08:17:59.643Z,99836.51
2018-11-10T08:19:05.425Z,99828.66
2018-11-10T08:20:11.533Z,99840.91
2018-11-10T08:21:17.129Z,99832.05
2018-11-10T08:22:22.613Z,99836.92
2018-11-10T08:23:28.073Z,99834.27
2018-11-10T08:24:33.484Z,99841.38
2018-11-10T08:25:38.949Z,99834.84
2018-11-10T08:26:44.378Z,99837.20
2018-11-10T08:27:49.809Z,99833.64
2018-11-10T08:28:55.237Z,99839.46
2018-11-10T08:30:00.669Z,99840.00
2018-11-10T08:31:06.379Z,99835.67
2018-11-10T08:32:11.899Z,99835.23
2018-11-10T08:33:17.538Z,99842.42
2018-11-10T08:34:23.101Z,99841.42
2018-11-10T08:35:28.829Z,99841.35
2018-11-10T08:36:34.539Z,99840.89
2018-11-10T08:37:40.060Z,99854.15
2018-11-10T08:38:45.546Z,99851.50
2018-11-10T08:39:51.065Z,99849.00
2018-11-10T08:40:56.684Z,99854.83
2018-11-10T08:42:02.128Z,99851.17
2018-11-10T08:43:07.561Z,99852.54
2018-11-10T08:44:13.063Z,99851.72
2018-11-10T08:45:18.562Z,99850.89
2018-11-10T08:46:24.451Z,99847.92
2018-11-10T08:47:30.145Z,99850.78
2018-11-10T08:48:35.556Z,99842.56
2018-11-10T08:49:41.011Z,99851.85
2018-11-10T08:50:46.580Z,99849.36
2018-11-10T08:51:52.222Z,99846.42
2018-11-10T08:52:58.009Z,99851.03
2018-11-10T08:54:03.513Z,99848.53
2018-11-10T08:55:10.006Z,99843.98
2018-11-10T08:56:15.644Z,99853.35
2018-11-10T08:57:21.283Z,99853.13
2018-11-10T08:58:26.791Z,99857.89
2018-11-10T08:59:32.370Z,99853.59
2018-11-10T09:00:37.865Z,99857.74
2018-11-10T09:01:43.395Z,99863.28
2018-11-10T09:02:48.837Z,99852.38
2018-11-10T09:03:54.433Z,99864.94
2018-11-10T09:04:59.995Z,99860.72
2018-11-10T09:06:05.760Z,99853.28
2018-11-10T09:07:11.194Z,99865.19
2018-11-10T09:08:16.664Z,99861.68
2018-11-10T09:09:22.242Z,99858.89
2018-11-10T09:10:27.734Z,99869.27
2018-11-10T09:11:33.160Z,99859.44
2018-11-10T09:12:38.892Z,99864.94
2018-11-10T09:13:44.438Z,99871.91
2018-11-10T09:14:50.008Z,99868.87
2018-11-10T09:15:55.597Z,99873.94
2018-11-10T09:17:01.137Z,99874.09
2018-11-10T09:18:07.096Z,99876.77
2018-11-10T09:19:12.748Z,99869.72
2018-11-10T09:20:18.372Z,99878.55
2018-11-10T09:21:23.936Z,99872.30
2018-11-10T09:22:29.373Z,99879.78
2018-11-10T09:23:34.934Z,99877.28
2018-11-10T09:24:40.520Z,99874.81
2018-11-10T09:25:45.941Z,99887.14
2018-11-10T09:26:51.382Z,99872.52
2018-11-10T09:27:56.824Z,99875.56
2018-11-10T09:29:02.248Z,99887.50
2018-11-10T09:30:09.661Z,99884.50
2018-11-10T09:31:15.104Z,99883.96
2018-11-10T09:32:20.562Z,99886.68
2018-11-10T09:33:25.965Z,99886.28
2018-11-10T09:34:31.442Z,99884.50
2018-11-10T09:35:36.876Z,99885.78
2018-11-10T09:36:42.376Z,99891.83
2018-11-10T09:37:47.781Z,99894.33
2018-11-10T09:38:53.275Z,99893.12
2018-11-10T09:39:58.720Z,99893.80
2018-11-10T09:41:04.256Z,99897.73
2018-11-10T09:42:09.681Z,99896.37
2018-11-10T09:43:15.096Z,99901.05
2018-11-10T09:44:20.493Z,99892.05
2018-11-10T09:45:25.965Z,99898.88
2018-11-10T09:46:31.552Z,99904.56
2018-11-10T09:47:37.337Z,99903.95
2018-11-10T09:48:42.910Z,99906.34
2018-11-10T09:49:48.416Z,99911.50
2018-11-10T09:50:53.939Z,99914.07
2018-11-10T09:51:59.365Z,99915.75
2018-11-10T09:53:04.921Z,99912.71
2018-11-10T09:54:10.353Z,99913.17
2018-11-10T09:55:16.353Z,99919.22
2018-11-10T09:56:21.853Z,99910.38
2018-11-10T09:57:27.662Z,99914.00
2018-11-10T09:58:33.134Z,99901.13
2018-11-10T09:59:38.553Z,99901.08
2018-11-10T10:00:44.028Z,99897.87
2018-11-10T10:01:49.703Z,99910.20
2018-11-10T10:02:55.121Z,99910.60
2018-11-10T10:04:00.603Z,99915.83
2018-11-10T10:05:07.258Z,99917.11
2018-11-10T10:06:12.666Z,99916.29
2018-11-10T10:07:18.100Z,99913.59
2018-11-10T10:08:23.621Z,99915.64
2018-11-10T10:09:29.052Z,99918.55
2018-11-10T10:10:34.510Z,99912.31
2018-11-10T10:11:40.651Z,99914.93
2018-11-10T10:12:46.346Z,99913.17
2018-11-10T10:13:51.852Z,99915.76
2018-11-10T10:14:57.283Z,99904.92
2018-11-10T10:16:02.836Z,99915.47
2018-11-10T10:17:08.250Z,99913.64
2018-11-10T10:18:13.656Z,99917.86
2018-11-10T10:19:19.130Z,99921.05
2018-11-10T10:20:24.580Z,99926.20
2018-11-10T10:21:30.218Z,99929.38
2018-11-10T10:22:35.696Z,99937.72
2018-11-10T10:23:41.173Z,99929.48
2018-11-10T10:24:46.587Z,99946.12
2018-11-10T10:25:52.082Z,99933.17
2018-11-10T10:26:57.688Z,99932.49
2018-11-10T10:28:03.170Z,99933.17
2018-11-10T10:29:08.652Z,99930.23
2018-11-10T10:30:17.837Z,99935.89
2018-11-10T10:31:23.257Z,99925.30
2018-11-10T10:32:28.796Z,99932.64
2018-11-10T10:33:34.242Z,99929.23
2018-11-10T10:34:40.024Z,99926.13
2018-11-10T10:35:45.204Z,99936.67
2018-11-10T10:36:50.696Z,99925.02
2018-11-10T10:37:56.252Z,99932.42
2018-11-10T10:39:01.699Z,99923.48
2018-11-10T10:40:09.400Z,99922.59
2018-11-10T10:41:14.841Z,99939.00
2018-11-10T10:42:20.400Z,99938.25
2018-11-10T10:43:25.832Z,99942.86
2018-11-10T10:44:31.382Z,99938.27
2018-11-10T10:45:36.877Z,99937.12
2018-11-10T10:46:42.281Z,99930.23
2018-11-10T10:47:47.672Z,99922.90
2018-11-10T10:48:53.233Z,99916.81
2018-11-10T10:49:58.671Z,99918.42
2018-11-10T10:51:04.237Z,99922.58
2018-11-10T10:52:09.670Z,99917.06
2018-11-10T10:53:15.149Z,99920.47
2018-11-10T10:54:20.797Z,99912.59
2018-11-10T10:55:26.209Z,99908.06
2018-11-10T10:56:31.855Z,99911.67
2018-11-10T10:57:37.218Z,99913.06
2018-11-10T10:58:42.634Z,99911.53
2018-11-10T10:59:48.126Z,99910.70
2018-11-10T11:00:58.852Z,99919.94
2018-11-10T11:02:09.518Z,99916.29
2018-11-10T11:03:20.099Z,99920.39
2018-11-10T11:04:30.773Z,99915.23
2018-11-10T11:05:43.459Z,99915.31
2018-11-10T11:06:48.899Z,99914.34
2018-11-10T11:07:54.868Z,99910.23
2018-11-10T11:09:00.326Z,99910.84
2018-11-10T11:10:06.963Z,99911.98
2018-11-10T11:11:12.632Z,99905.84
2018-11-10T11:12:18.140Z,99906.45
2018-11-10T11:13:23.572Z,99893.58
2018-11-10T11:14:28.994Z,99904.73
2018-11-10T11:15:34.655Z,99905.48
2018-11-10T11:16:39.956Z,99911.91
2018-11-10T11:17:45.426Z,99907.59
2018-11-10T11:18:50.861Z,99903.34
2018-11-10T11:19:56.326Z,99903.27
2018-11-10T11:21:01.738Z,99903.06
2018-11-10T11:22:07.710Z,99904.70
2018-11-10T11:23:13.293Z,99910.67
2018-11-10T11:24:18.849Z,99902.59
2018-11-10T11:25:24.271Z,99918.58
2018-11-10T11:26:29.744Z,99901.23
2018-11-10T11:27:35.141Z,99907.96
2018-11-10T11:28:40.686Z,99909.35
2018-11-10T11:29:46.156Z,99902.52
2018-11-10T11:30:51.657Z,99903.63
2018-11-10T11:31:57.161Z,99910.31
2018-11-10T11:33:02.581Z,99912.43
2018-11-10T11:34:08.235Z,99904.02
2018-11-10T11:35:14.248Z,99903.73
2018-11-10T11:36:19.740Z,99908.11
2018-11-10T11:37:25.178Z,99902.59
2018-11-10T11:38:30.622Z,99908.24
2018-11-10T11:39:36.110Z,99906.34
2018-11-10T11:40:41.546Z,99906.81
2018-11-10T11:41:47.116Z,99912.03
2018-11-10T11:42:52.502Z,99909.17
2018-11-10T11:43:57.929Z,99905.31
2018-11-10T11:45:03.538Z,99911.14
2018-11-10T11:46:08.978Z,99910.20
2018-11-10T11:47:14.612Z,99912.64
2018-11-10T11:48:20.154Z,99912.14
2018-11-10T11:49:25.683Z,99917.44
2018-11-10T11:50:31.126Z,99916.29
2018-11-10T11:51:36.504Z,99921.05
2018-11-10T11:52:42.562Z,99909.87
2018-11-10T11:53:48.017Z,99913.64
2018-11-10T11:54:53.433Z,99903.02
2018-11-10T11:55:58.991Z,99902.66
2018-11-10T11:57:04.444Z,99897.20
2018-11-10T11:58:10.014Z,99904.31
2018-11-10T11:59:15.300Z,99902.88
2018-11-10T12:00:20.854Z,99896.69
2018-11-10T12:01:27.045Z,99898.80
2018-11-10T12:02:32.556Z,99905.17
2018-11-10T12:03:37.983Z,99904.09
2018-11-10T12:04:43.486Z,99905.99
2018-11-10T12:05:48.849Z,99905.09
2018-11-10T12:06:54.411Z,99902.13
2018-11-10T12:07:59.857Z,99906.06
2018-11-10T12:09:08.521Z,99908.28
2018-11-10T12:10:15.080Z,99905.53
2018-11-10T12:11:20.465Z,99899.41
2018-11-10T12:12:25.956Z,99898.80
2018-11-10T12:13:31.353Z,99900.38
2018-11-10T12:14:36.795Z,99901.13
2018-11-10T12:15:42.271Z,99902.59
2018-11-10T12:16:47.818Z,99899.55
2018-11-10T12:17:53.274Z,99897.52
2018-11-10T12:18:58.755Z,99903.27
2018-11-10T12:20:04.261Z,99902.81
2018-11-10T12:21:09.760Z,99896.02
2018-11-10T12:22:15.222Z,99894.87
2018-11-10T12:23:20.669Z,99899.41
2018-11-10T12:24:26.137Z,99890.47
2018-11-10T12:25:31.618Z,99894.41
2018-11-10T12:26:37.182Z,99896.91
2018-11-10T12:27:43.340Z,99896.83
2018-11-10T12:28:48.785Z,99898.05
2018-11-10T12:29:54.358Z,99898.88
2018-11-10T12:30:59.997Z,99896.30
2018-11-10T12:32:05.577Z,99886.46
2018-11-10T12:33:11.164Z,99891.25
2018-11-10T12:34:16.742Z,99888.42
2018-11-10T12:35:22.250Z,99890.14
2018-11-10T12:36:27.778Z,99896.05
2018-11-10T12:37:33.445Z,99889.39
2018-11-10T12:38:39.102Z,99892.36
2018-11-10T12:39:44.684Z,99892.11
2018-11-10T12:40:50.226Z,99891.45
2018-11-10T12:41:55.884Z,99895.17
2018-11-10T12:43:01.406Z,99891.23
2018-11-10T12:44:07.800Z,99886.09
2018-11-10T12:45:14.180Z,99888.27